sensor_id;sensor_type;location;lat;lon;timestamp;temperature;humidity
2751;DHT22;1383;48.362;10.908;2023-03-24T00:01:18;14.30;42.00
2751;DHT22;1383;48.362;10.908;2023-03-24T00:03:45;14.30;42.10
2751;DHT22;1383;48.362;10.908;2023-03-24T00:06:14;14.30;42.10
2751;DHT22;1383;48.362;10.908;2023-03-24T00:08:44;14.30;42.30
2751;DHT22;1383;48.362;10.908;2023-03-24T00:11:13;14.20;42.30
2751;DHT22;1383;48.362;10.908;2023-03-24T00:13:40;14.20;42.60
2751;DHT22;1383;48.362;10.908;2023-03-24T00:16:09;14.10;42.80
2751;DHT22;1383;48.362;10.908;2023-03-24T00:18:38;14.00;43.10
2751;DHT22;1383;48.362;10.908;2023-03-24T00:21:06;13.90;43.40
2751;DHT22;1383;48.362;10.908;2023-03-24T00:23:34;13.80;44.10
2751;DHT22;1383;48.362;10.908;2023-03-24T00:26:06;13.80;44.20
2751;DHT22;1383;48.362;10.908;2023-03-24T00:28:35;13.80;44.10
2751;DHT22;1383;48.362;10.908;2023-03-24T00:31:04;13.80;44.30
2751;DHT22;1383;48.362;10.908;2023-03-24T00:33:31;13.90;44.10
2751;DHT22;1383;48.362;10.908;2023-03-24T00:36:05;13.90;44.00
2751;DHT22;1383;48.362;10.908;2023-03-24T00:38:33;13.80;43.90
2751;DHT22;1383;48.362;10.908;2023-03-24T00:41:01;13.80;44.20
2751;DHT22;1383;48.362;10.908;2023-03-24T00:43:28;13.90;44.00
2751;DHT22;1383;48.362;10.908;2023-03-24T00:46:07;14.00;43.80
2751;DHT22;1383;48.362;10.908;2023-03-24T00:48:34;14.00;43.40
2751;DHT22;1383;48.362;10.908;2023-03-24T00:51:05;14.00;43.30
2751;DHT22;1383;48.362;10.908;2023-03-24T00:53:33;14.00;43.40
2751;DHT22;1383;48.362;10.908;2023-03-24T00:56:00;13.90;43.50
2751;DHT22;1383;48.362;10.908;2023-03-24T00:58:27;13.90;43.50
2751;DHT22;1383;48.362;10.908;2023-03-24T01:00:56;13.90;43.70
2751;DHT22;1383;48.362;10.908;2023-03-24T01:03:24;13.90;43.70
2751;DHT22;1383;48.362;10.908;2023-03-24T01:05:54;13.90;43.40
2751;DHT22;1383;48.362;10.908;2023-03-24T01:08:23;13.90;43.30
2751;DHT22;1383;48.362;10.908;2023-03-24T01:10:51;14.00;43.40
2751;DHT22;1383;48.362;10.908;2023-03-24T01:13:25;14.10;43.00
2751;DHT22;1383;48.362;10.908;2023-03-24T01:15:52;14.10;42.50
2751;DHT22;1383;48.362;10.908;2023-03-24T01:18:20;14.10;42.50
2751;DHT22;1383;48.362;10.908;2023-03-24T01:20:49;14.20;43.10
2751;DHT22;1383;48.362;10.908;2023-03-24T01:23:20;14.20;43.90
2751;DHT22;1383;48.362;10.908;2023-03-24T01:25:48;14.10;45.50
2751;DHT22;1383;48.362;10.908;2023-03-24T01:28:18;14.10;45.90
2751;DHT22;1383;48.362;10.908;2023-03-24T01:30:47;14.00;48.40
2751;DHT22;1383;48.362;10.908;2023-03-24T01:33:14;13.90;49.40
2751;DHT22;1383;48.362;10.908;2023-03-24T01:35:41;13.80;50.20
2751;DHT22;1383;48.362;10.908;2023-03-24T01:38:09;13.70;51.50
2751;DHT22;1383;48.362;10.908;2023-03-24T01:40:41;13.60;51.40
2751;DHT22;1383;48.362;10.908;2023-03-24T01:43:20;13.70;51.70
2751;DHT22;1383;48.362;10.908;2023-03-24T01:45:56;13.80;52.20
2751;DHT22;1383;48.362;10.908;2023-03-24T01:51:18;13.80;52.40
2751;DHT22;1383;48.362;10.908;2023-03-24T01:56:18;13.90;52.70
2751;DHT22;1383;48.362;10.908;2023-03-24T01:58:49;13.80;53.50
2751;DHT22;1383;48.362;10.908;2023-03-24T02:01:18;13.80;53.90
2751;DHT22;1383;48.362;10.908;2023-03-24T02:03:45;13.70;54.40
2751;DHT22;1383;48.362;10.908;2023-03-24T02:06:12;13.60;54.50
2751;DHT22;1383;48.362;10.908;2023-03-24T02:08:53;13.60;54.90
2751;DHT22;1383;48.362;10.908;2023-03-24T02:11:23;13.50;55.10
2751;DHT22;1383;48.362;10.908;2023-03-24T02:13:50;13.50;55.10
2751;DHT22;1383;48.362;10.908;2023-03-24T02:16:34;13.50;55.80
2751;DHT22;1383;48.362;10.908;2023-03-24T02:28:02;13.50;55.80
2751;DHT22;1383;48.362;10.908;2023-03-24T02:34:10;13.20;57.50
2751;DHT22;1383;48.362;10.908;2023-03-24T02:48:01;12.90;58.40
2751;DHT22;1383;48.362;10.908;2023-03-24T02:53:27;13.00;57.50
2751;DHT22;1383;48.362;10.908;2023-03-24T03:01:24;13.10;57.80
2751;DHT22;1383;48.362;10.908;2023-03-24T03:04:01;13.20;57.50
2751;DHT22;1383;48.362;10.908;2023-03-24T03:06:33;13.30;57.50
2751;DHT22;1383;48.362;10.908;2023-03-24T03:09:07;13.40;57.50
2751;DHT22;1383;48.362;10.908;2023-03-24T03:11:37;13.40;57.00
2751;DHT22;1383;48.362;10.908;2023-03-24T03:14:14;13.40;56.80
2751;DHT22;1383;48.362;10.908;2023-03-24T03:17:06;13.50;56.10
2751;DHT22;1383;48.362;10.908;2023-03-24T03:19:42;13.50;55.80
2751;DHT22;1383;48.362;10.908;2023-03-24T03:22:16;13.50;55.30
2751;DHT22;1383;48.362;10.908;2023-03-24T03:24:47;13.50;55.50
2751;DHT22;1383;48.362;10.908;2023-03-24T03:27:24;13.50;56.30
2751;DHT22;1383;48.362;10.908;2023-03-24T03:29:59;13.50;55.60
2751;DHT22;1383;48.362;10.908;2023-03-24T03:32:34;13.20;55.70
2751;DHT22;1383;48.362;10.908;2023-03-24T03:35:15;13.30;56.60
2751;DHT22;1383;48.362;10.908;2023-03-24T03:37:56;13.30;56.60
2751;DHT22;1383;48.362;10.908;2023-03-24T03:40:31;13.20;56.60
2751;DHT22;1383;48.362;10.908;2023-03-24T03:43:01;13.20;56.30
2751;DHT22;1383;48.362;10.908;2023-03-24T03:45:28;13.00;56.40
2751;DHT22;1383;48.362;10.908;2023-03-24T03:47:55;13.10;57.80
2751;DHT22;1383;48.362;10.908;2023-03-24T03:50:22;13.10;57.00
2751;DHT22;1383;48.362;10.908;2023-03-24T03:52:49;13.10;56.70
2751;DHT22;1383;48.362;10.908;2023-03-24T03:55:18;13.20;56.20
2751;DHT22;1383;48.362;10.908;2023-03-24T03:57:45;13.10;56.20
2751;DHT22;1383;48.362;10.908;2023-03-24T04:00:16;13.20;55.70
2751;DHT22;1383;48.362;10.908;2023-03-24T04:06:01;13.10;54.80
2751;DHT22;1383;48.362;10.908;2023-03-24T04:08:46;13.10;55.40
2751;DHT22;1383;48.362;10.908;2023-03-24T04:11:53;13.20;54.90
2751;DHT22;1383;48.362;10.908;2023-03-24T04:14:58;13.20;55.20
2751;DHT22;1383;48.362;10.908;2023-03-24T04:17:41;13.20;55.00
2751;DHT22;1383;48.362;10.908;2023-03-24T04:20:39;13.10;55.50
2751;DHT22;1383;48.362;10.908;2023-03-24T04:23:26;13.10;55.80
2751;DHT22;1383;48.362;10.908;2023-03-24T04:26:15;13.00;56.50
2751;DHT22;1383;48.362;10.908;2023-03-24T04:29:03;13.10;56.70
2751;DHT22;1383;48.362;10.908;2023-03-24T04:31:42;13.10;56.40
2751;DHT22;1383;48.362;10.908;2023-03-24T04:34:34;13.10;56.90
2751;DHT22;1383;48.362;10.908;2023-03-24T04:37:12;13.20;56.80
2751;DHT22;1383;48.362;10.908;2023-03-24T04:39:43;13.10;57.50
2751;DHT22;1383;48.362;10.908;2023-03-24T04:42:17;13.10;56.80
2751;DHT22;1383;48.362;10.908;2023-03-24T04:44:45;13.10;57.50
2751;DHT22;1383;48.362;10.908;2023-03-24T04:47:12;13.20;57.10
2751;DHT22;1383;48.362;10.908;2023-03-24T04:49:39;13.30;56.90
2751;DHT22;1383;48.362;10.908;2023-03-24T04:52:06;13.30;56.50
2751;DHT22;1383;48.362;10.908;2023-03-24T04:54:33;13.30;56.50
2751;DHT22;1383;48.362;10.908;2023-03-24T04:57:01;13.40;56.90
2751;DHT22;1383;48.362;10.908;2023-03-24T04:59:28;13.40;56.40
2751;DHT22;1383;48.362;10.908;2023-03-24T05:01:56;13.40;56.70
2751;DHT22;1383;48.362;10.908;2023-03-24T05:04:25;13.50;56.90
2751;DHT22;1383;48.362;10.908;2023-03-24T05:06:53;13.60;56.90
2751;DHT22;1383;48.362;10.908;2023-03-24T05:09:21;13.60;56.90
2751;DHT22;1383;48.362;10.908;2023-03-24T05:11:48;13.40;56.90
2751;DHT22;1383;48.362;10.908;2023-03-24T05:14:16;13.30;57.10
2751;DHT22;1383;48.362;10.908;2023-03-24T05:16:43;13.40;57.70
2751;DHT22;1383;48.362;10.908;2023-03-24T05:19:10;13.30;56.90
2751;DHT22;1383;48.362;10.908;2023-03-24T05:21:37;13.30;57.20
2751;DHT22;1383;48.362;10.908;2023-03-24T05:24:04;13.30;57.10
2751;DHT22;1383;48.362;10.908;2023-03-24T05:26:32;13.40;56.50
2751;DHT22;1383;48.362;10.908;2023-03-24T05:28:59;13.40;56.80
2751;DHT22;1383;48.362;10.908;2023-03-24T05:31:26;13.40;56.50
2751;DHT22;1383;48.362;10.908;2023-03-24T05:33:53;13.40;56.20
2751;DHT22;1383;48.362;10.908;2023-03-24T05:36:21;13.30;56.10
2751;DHT22;1383;48.362;10.908;2023-03-24T05:38:47;13.20;57.10
2751;DHT22;1383;48.362;10.908;2023-03-24T05:41:14;13.20;57.70
2751;DHT22;1383;48.362;10.908;2023-03-24T05:43:41;13.30;57.90
2751;DHT22;1383;48.362;10.908;2023-03-24T05:46:08;13.30;58.20
2751;DHT22;1383;48.362;10.908;2023-03-24T05:48:35;13.20;58.70
2751;DHT22;1383;48.362;10.908;2023-03-24T05:51:01;13.20;59.20
2751;DHT22;1383;48.362;10.908;2023-03-24T05:53:28;13.10;58.90
2751;DHT22;1383;48.362;10.908;2023-03-24T05:55:55;13.00;60.10
2751;DHT22;1383;48.362;10.908;2023-03-24T05:58:24;13.10;60.20
2751;DHT22;1383;48.362;10.908;2023-03-24T06:00:51;13.20;60.40
2751;DHT22;1383;48.362;10.908;2023-03-24T06:03:20;13.30;59.30
2751;DHT22;1383;48.362;10.908;2023-03-24T06:05:47;13.40;58.00
2751;DHT22;1383;48.362;10.908;2023-03-24T06:08:15;13.40;57.50
2751;DHT22;1383;48.362;10.908;2023-03-24T06:10:42;13.40;57.60
2751;DHT22;1383;48.362;10.908;2023-03-24T06:13:09;13.40;57.90
2751;DHT22;1383;48.362;10.908;2023-03-24T06:15:36;13.40;57.70
2751;DHT22;1383;48.362;10.908;2023-03-24T06:18:05;13.50;57.90
2751;DHT22;1383;48.362;10.908;2023-03-24T06:20:33;13.50;58.00
2751;DHT22;1383;48.362;10.908;2023-03-24T06:23:01;13.50;57.70
2751;DHT22;1383;48.362;10.908;2023-03-24T06:25:28;13.60;58.10
2751;DHT22;1383;48.362;10.908;2023-03-24T06:27:55;13.70;57.70
2751;DHT22;1383;48.362;10.908;2023-03-24T06:30:22;13.70;57.40
2751;DHT22;1383;48.362;10.908;2023-03-24T06:32:49;13.80;57.00
2751;DHT22;1383;48.362;10.908;2023-03-24T06:35:16;13.80;56.30
2751;DHT22;1383;48.362;10.908;2023-03-24T06:37:43;13.70;55.30
2751;DHT22;1383;48.362;10.908;2023-03-24T06:40:11;13.60;56.60
2751;DHT22;1383;48.362;10.908;2023-03-24T06:42:41;13.70;56.70
2751;DHT22;1383;48.362;10.908;2023-03-24T06:45:08;13.80;56.10
2751;DHT22;1383;48.362;10.908;2023-03-24T06:47:35;13.90;55.50
2751;DHT22;1383;48.362;10.908;2023-03-24T06:50:04;13.90;54.80
2751;DHT22;1383;48.362;10.908;2023-03-24T06:52:31;14.00;54.70
2751;DHT22;1383;48.362;10.908;2023-03-24T06:54:58;14.10;55.00
2751;DHT22;1383;48.362;10.908;2023-03-24T06:57:25;14.10;55.00
2751;DHT22;1383;48.362;10.908;2023-03-24T06:59:52;14.00;55.60
2751;DHT22;1383;48.362;10.908;2023-03-24T07:02:19;14.00;55.60
2751;DHT22;1383;48.362;10.908;2023-03-24T07:04:47;14.00;56.80
2751;DHT22;1383;48.362;10.908;2023-03-24T07:07:14;13.80;56.70
2751;DHT22;1383;48.362;10.908;2023-03-24T07:10:04;13.70;57.50
2751;DHT22;1383;48.362;10.908;2023-03-24T07:12:31;13.80;58.20
2751;DHT22;1383;48.362;10.908;2023-03-24T07:14:58;13.80;57.80
2751;DHT22;1383;48.362;10.908;2023-03-24T07:17:25;13.90;57.60
2751;DHT22;1383;48.362;10.908;2023-03-24T07:19:52;14.00;57.60
2751;DHT22;1383;48.362;10.908;2023-03-24T07:22:18;14.10;58.00
2751;DHT22;1383;48.362;10.908;2023-03-24T07:24:45;14.20;57.30
2751;DHT22;1383;48.362;10.908;2023-03-24T07:27:12;14.20;57.30
2751;DHT22;1383;48.362;10.908;2023-03-24T07:29:39;14.20;58.30
2751;DHT22;1383;48.362;10.908;2023-03-24T07:32:06;14.20;58.00
2751;DHT22;1383;48.362;10.908;2023-03-24T07:34:33;14.20;59.30
2751;DHT22;1383;48.362;10.908;2023-03-24T07:37:02;14.20;59.70
2751;DHT22;1383;48.362;10.908;2023-03-24T07:39:29;14.10;60.70
2751;DHT22;1383;48.362;10.908;2023-03-24T07:41:56;14.10;61.30
2751;DHT22;1383;48.362;10.908;2023-03-24T07:44:24;14.10;61.80
2751;DHT22;1383;48.362;10.908;2023-03-24T07:46:51;14.10;62.40
2751;DHT22;1383;48.362;10.908;2023-03-24T07:49:19;14.20;62.50
2751;DHT22;1383;48.362;10.908;2023-03-24T07:51:46;14.30;63.80
2751;DHT22;1383;48.362;10.908;2023-03-24T07:54:12;14.40;62.30
2751;DHT22;1383;48.362;10.908;2023-03-24T07:56:39;14.40;62.70
2751;DHT22;1383;48.362;10.908;2023-03-24T07:59:07;14.50;62.90
2751;DHT22;1383;48.362;10.908;2023-03-24T08:01:36;14.60;63.40
2751;DHT22;1383;48.362;10.908;2023-03-24T08:04:04;14.60;63.60
2751;DHT22;1383;48.362;10.908;2023-03-24T08:06:32;14.70;63.10
2751;DHT22;1383;48.362;10.908;2023-03-24T08:09:00;14.70;63.00
2751;DHT22;1383;48.362;10.908;2023-03-24T08:11:28;14.60;64.80
2751;DHT22;1383;48.362;10.908;2023-03-24T08:13:55;14.60;66.00
2751;DHT22;1383;48.362;10.908;2023-03-24T08:16:21;14.60;67.00
2751;DHT22;1383;48.362;10.908;2023-03-24T08:18:48;14.70;66.70
2751;DHT22;1383;48.362;10.908;2023-03-24T08:21:16;14.70;66.30
2751;DHT22;1383;48.362;10.908;2023-03-24T08:23:43;14.70;66.00
2751;DHT22;1383;48.362;10.908;2023-03-24T08:26:09;14.80;65.70
2751;DHT22;1383;48.362;10.908;2023-03-24T08:28:36;14.90;64.70
2751;DHT22;1383;48.362;10.908;2023-03-24T08:31:04;14.80;63.70
2751;DHT22;1383;48.362;10.908;2023-03-24T08:33:30;14.80;64.30
2751;DHT22;1383;48.362;10.908;2023-03-24T08:35:57;14.90;65.00
2751;DHT22;1383;48.362;10.908;2023-03-24T08:38:27;14.90;63.80
2751;DHT22;1383;48.362;10.908;2023-03-24T08:41:01;14.90;63.60
2751;DHT22;1383;48.362;10.908;2023-03-24T08:43:33;15.00;63.80
2751;DHT22;1383;48.362;10.908;2023-03-24T08:46:01;15.00;63.80
2751;DHT22;1383;48.362;10.908;2023-03-24T08:48:29;15.00;63.30
2751;DHT22;1383;48.362;10.908;2023-03-24T08:50:56;15.00;64.20
2751;DHT22;1383;48.362;10.908;2023-03-24T08:53:23;15.00;65.30
2751;DHT22;1383;48.362;10.908;2023-03-24T08:55:50;14.90;63.40
2751;DHT22;1383;48.362;10.908;2023-03-24T08:58:19;14.90;64.00
2751;DHT22;1383;48.362;10.908;2023-03-24T09:00:47;15.00;63.60
2751;DHT22;1383;48.362;10.908;2023-03-24T09:03:17;15.00;62.90
2751;DHT22;1383;48.362;10.908;2023-03-24T09:05:48;15.00;62.90
2751;DHT22;1383;48.362;10.908;2023-03-24T09:08:18;15.10;63.30
2751;DHT22;1383;48.362;10.908;2023-03-24T09:10:45;15.00;62.40
2751;DHT22;1383;48.362;10.908;2023-03-24T09:13:13;15.00;63.70
2751;DHT22;1383;48.362;10.908;2023-03-24T09:15:52;15.00;64.40
2751;DHT22;1383;48.362;10.908;2023-03-24T09:18:20;14.90;63.30
2751;DHT22;1383;48.362;10.908;2023-03-24T09:20:47;14.80;62.80
2751;DHT22;1383;48.362;10.908;2023-03-24T09:23:15;14.80;63.80
2751;DHT22;1383;48.362;10.908;2023-03-24T09:25:42;14.80;64.10
2751;DHT22;1383;48.362;10.908;2023-03-24T09:28:08;14.70;63.50
2751;DHT22;1383;48.362;10.908;2023-03-24T09:30:35;14.70;63.80
2751;DHT22;1383;48.362;10.908;2023-03-24T09:33:02;14.60;63.80
2751;DHT22;1383;48.362;10.908;2023-03-24T09:35:29;14.60;65.10
2751;DHT22;1383;48.362;10.908;2023-03-24T09:37:56;14.50;64.10
2751;DHT22;1383;48.362;10.908;2023-03-24T09:40:29;14.40;65.00
2751;DHT22;1383;48.362;10.908;2023-03-24T09:43:03;14.30;66.90
2751;DHT22;1383;48.362;10.908;2023-03-24T09:45:35;14.20;67.90
2751;DHT22;1383;48.362;10.908;2023-03-24T09:48:07;14.20;69.90
2751;DHT22;1383;48.362;10.908;2023-03-24T09:53:39;14.20;69.20
2751;DHT22;1383;48.362;10.908;2023-03-24T09:56:13;14.10;70.00
2751;DHT22;1383;48.362;10.908;2023-03-24T09:58:42;14.20;70.60
2751;DHT22;1383;48.362;10.908;2023-03-24T10:01:13;14.10;70.90
2751;DHT22;1383;48.362;10.908;2023-03-24T10:03:43;14.10;71.40
2751;DHT22;1383;48.362;10.908;2023-03-24T10:06:20;13.90;71.40
2751;DHT22;1383;48.362;10.908;2023-03-24T10:09:07;13.90;74.20
2751;DHT22;1383;48.362;10.908;2023-03-24T10:12:07;14.00;74.40
2751;DHT22;1383;48.362;10.908;2023-03-24T10:14:45;13.90;74.70
2751;DHT22;1383;48.362;10.908;2023-03-24T10:17:28;14.00;74.10
2751;DHT22;1383;48.362;10.908;2023-03-24T10:20:10;14.30;74.60
2751;DHT22;1383;48.362;10.908;2023-03-24T10:23:02;14.50;72.10
2751;DHT22;1383;48.362;10.908;2023-03-24T10:31:34;15.30;67.70
2751;DHT22;1383;48.362;10.908;2023-03-24T10:34:02;15.40;66.70
2751;DHT22;1383;48.362;10.908;2023-03-24T10:36:30;15.50;66.40
2751;DHT22;1383;48.362;10.908;2023-03-24T10:38:57;15.60;65.10
2751;DHT22;1383;48.362;10.908;2023-03-24T10:41:40;15.50;64.50
2751;DHT22;1383;48.362;10.908;2023-03-24T10:44:09;15.50;65.90
2751;DHT22;1383;48.362;10.908;2023-03-24T10:46:44;15.40;65.70
2751;DHT22;1383;48.362;10.908;2023-03-24T10:51:45;15.20;62.70
2751;DHT22;1383;48.362;10.908;2023-03-24T10:54:23;15.20;60.50
2751;DHT22;1383;48.362;10.908;2023-03-24T11:02:21;15.40;60.90
2751;DHT22;1383;48.362;10.908;2023-03-24T11:05:00;15.60;59.30
2751;DHT22;1383;48.362;10.908;2023-03-24T11:07:40;15.70;56.80
2751;DHT22;1383;48.362;10.908;2023-03-24T11:12:59;15.90;57.30
2751;DHT22;1383;48.362;10.908;2023-03-24T11:15:35;15.90;55.40
2751;DHT22;1383;48.362;10.908;2023-03-24T11:20:52;16.10;54.60
2751;DHT22;1383;48.362;10.908;2023-03-24T11:23:40;16.10;54.80
2751;DHT22;1383;48.362;10.908;2023-03-24T11:26:21;16.20;54.10
2751;DHT22;1383;48.362;10.908;2023-03-24T11:28:56;16.30;53.20
2751;DHT22;1383;48.362;10.908;2023-03-24T11:31:29;16.20;53.10
2751;DHT22;1383;48.362;10.908;2023-03-24T11:34:05;16.20;54.70
2751;DHT22;1383;48.362;10.908;2023-03-24T11:36:52;16.30;55.00
2751;DHT22;1383;48.362;10.908;2023-03-24T11:39:24;16.50;54.00
2751;DHT22;1383;48.362;10.908;2023-03-24T11:41:59;16.50;53.40
2751;DHT22;1383;48.362;10.908;2023-03-24T11:44:47;16.50;52.80
2751;DHT22;1383;48.362;10.908;2023-03-24T11:47:36;16.50;53.40
2751;DHT22;1383;48.362;10.908;2023-03-24T11:55:15;16.50;53.40
2751;DHT22;1383;48.362;10.908;2023-03-24T11:57:56;16.50;53.10
2751;DHT22;1383;48.362;10.908;2023-03-24T12:17:36;16.60;51.10
2751;DHT22;1383;48.362;10.908;2023-03-24T12:20:20;16.70;51.90
2751;DHT22;1383;48.362;10.908;2023-03-24T12:22:57;16.70;49.20
2751;DHT22;1383;48.362;10.908;2023-03-24T12:31:07;16.30;47.10
2751;DHT22;1383;48.362;10.908;2023-03-24T12:39:10;16.70;46.60
2751;DHT22;1383;48.362;10.908;2023-03-24T12:49:27;16.50;44.30
2751;DHT22;1383;48.362;10.908;2023-03-24T12:55:04;16.20;45.50
2751;DHT22;1383;48.362;10.908;2023-03-24T12:57:39;16.00;46.90
2751;DHT22;1383;48.362;10.908;2023-03-24T13:00:39;15.90;49.00
2751;DHT22;1383;48.362;10.908;2023-03-24T13:03:17;15.80;51.40
2751;DHT22;1383;48.362;10.908;2023-03-24T13:05:49;15.70;51.30
2751;DHT22;1383;48.362;10.908;2023-03-24T13:08:24;15.60;50.80
2751;DHT22;1383;48.362;10.908;2023-03-24T13:10:59;15.60;51.00
2751;DHT22;1383;48.362;10.908;2023-03-24T13:13:36;15.70;50.60
2751;DHT22;1383;48.362;10.908;2023-03-24T13:16:20;15.80;50.40
2751;DHT22;1383;48.362;10.908;2023-03-24T13:18:55;15.80;49.30
2751;DHT22;1383;48.362;10.908;2023-03-24T13:21:25;15.70;48.80
2751;DHT22;1383;48.362;10.908;2023-03-24T13:24:04;15.70;49.10
2751;DHT22;1383;48.362;10.908;2023-03-24T13:26:38;15.80;48.30
2751;DHT22;1383;48.362;10.908;2023-03-24T13:29:43;15.90;48.40
2751;DHT22;1383;48.362;10.908;2023-03-24T13:34:58;16.30;47.00
2751;DHT22;1383;48.362;10.908;2023-03-24T13:37:35;16.30;45.70
2751;DHT22;1383;48.362;10.908;2023-03-24T13:40:14;16.20;44.70
2751;DHT22;1383;48.362;10.908;2023-03-24T13:42:54;16.10;45.80
2751;DHT22;1383;48.362;10.908;2023-03-24T13:50:40;15.80;46.10
2751;DHT22;1383;48.362;10.908;2023-03-24T13:53:13;15.80;46.80
2751;DHT22;1383;48.362;10.908;2023-03-24T13:55:47;15.70;46.90
2751;DHT22;1383;48.362;10.908;2023-03-24T13:58:24;15.80;46.90
2751;DHT22;1383;48.362;10.908;2023-03-24T14:03:38;15.70;46.60
2751;DHT22;1383;48.362;10.908;2023-03-24T14:06:07;15.60;48.00
2751;DHT22;1383;48.362;10.908;2023-03-24T14:17:14;14.90;53.80
2751;DHT22;1383;48.362;10.908;2023-03-24T14:22:42;15.00;53.00
2751;DHT22;1383;48.362;10.908;2023-03-24T14:27:46;15.20;51.50
2751;DHT22;1383;48.362;10.908;2023-03-24T14:30:20;15.20;51.50
2751;DHT22;1383;48.362;10.908;2023-03-24T14:32:51;15.30;52.00
2751;DHT22;1383;48.362;10.908;2023-03-24T14:35:41;15.40;50.60
2751;DHT22;1383;48.362;10.908;2023-03-24T14:40:42;15.60;50.00
2751;DHT22;1383;48.362;10.908;2023-03-24T14:43:25;15.60;49.70
2751;DHT22;1383;48.362;10.908;2023-03-24T14:48:41;15.30;49.10
2751;DHT22;1383;48.362;10.908;2023-03-24T14:51:43;15.30;49.40
2751;DHT22;1383;48.362;10.908;2023-03-24T14:54:28;15.30;49.00
2751;DHT22;1383;48.362;10.908;2023-03-24T14:56:57;15.10;49.90
2751;DHT22;1383;48.362;10.908;2023-03-24T15:02:44;14.90;50.60
2751;DHT22;1383;48.362;10.908;2023-03-24T15:08:07;14.80;51.90
2751;DHT22;1383;48.362;10.908;2023-03-24T15:10:43;14.80;51.90
2751;DHT22;1383;48.362;10.908;2023-03-24T15:16:02;14.80;51.90
2751;DHT22;1383;48.362;10.908;2023-03-24T15:18:29;14.70;51.80
2751;DHT22;1383;48.362;10.908;2023-03-24T15:20:56;14.60;52.40
2751;DHT22;1383;48.362;10.908;2023-03-24T15:23:26;14.50;53.60
2751;DHT22;1383;48.362;10.908;2023-03-24T15:25:58;14.40;55.20
2751;DHT22;1383;48.362;10.908;2023-03-24T15:28:26;14.40;56.30
2751;DHT22;1383;48.362;10.908;2023-03-24T15:30:55;14.40;56.70
2751;DHT22;1383;48.362;10.908;2023-03-24T15:33:22;14.30;57.50
2751;DHT22;1383;48.362;10.908;2023-03-24T15:35:55;14.20;58.30
2751;DHT22;1383;48.362;10.908;2023-03-24T15:38:32;14.20;60.10
2751;DHT22;1383;48.362;10.908;2023-03-24T15:41:02;14.20;60.40
2751;DHT22;1383;48.362;10.908;2023-03-24T15:43:30;14.10;60.10
2751;DHT22;1383;48.362;10.908;2023-03-24T15:45:58;13.90;60.40
2751;DHT22;1383;48.362;10.908;2023-03-24T15:48:38;13.90;62.20
2751;DHT22;1383;48.362;10.908;2023-03-24T15:51:09;13.80;63.30
2751;DHT22;1383;48.362;10.908;2023-03-24T15:53:43;13.60;64.70
2751;DHT22;1383;48.362;10.908;2023-03-24T15:58:52;13.60;68.00
2751;DHT22;1383;48.362;10.908;2023-03-24T16:01:24;13.40;69.50
2751;DHT22;1383;48.362;10.908;2023-03-24T16:03:53;13.40;71.20
2751;DHT22;1383;48.362;10.908;2023-03-24T16:06:26;13.40;71.90
2751;DHT22;1383;48.362;10.908;2023-03-24T16:09:07;13.20;72.70
2751;DHT22;1383;48.362;10.908;2023-03-24T16:11:42;13.10;74.60
2751;DHT22;1383;48.362;10.908;2023-03-24T16:16:46;13.00;76.20
2751;DHT22;1383;48.362;10.908;2023-03-24T16:19:13;13.00;77.40
2751;DHT22;1383;48.362;10.908;2023-03-24T16:21:40;13.10;76.00
2751;DHT22;1383;48.362;10.908;2023-03-24T16:24:06;13.10;74.50
2751;DHT22;1383;48.362;10.908;2023-03-24T16:26:33;13.10;74.40
2751;DHT22;1383;48.362;10.908;2023-03-24T16:29:14;13.10;75.10
2751;DHT22;1383;48.362;10.908;2023-03-24T16:31:42;13.20;73.00
2751;DHT22;1383;48.362;10.908;2023-03-24T16:34:10;13.20;72.50
2751;DHT22;1383;48.362;10.908;2023-03-24T16:36:37;13.20;72.30
2751;DHT22;1383;48.362;10.908;2023-03-24T16:39:12;13.10;72.00
2751;DHT22;1383;48.362;10.908;2023-03-24T16:41:39;13.10;72.30
2751;DHT22;1383;48.362;10.908;2023-03-24T16:44:06;13.10;71.90
2751;DHT22;1383;48.362;10.908;2023-03-24T16:46:34;13.10;72.10
2751;DHT22;1383;48.362;10.908;2023-03-24T16:49:03;13.00;71.90
2751;DHT22;1383;48.362;10.908;2023-03-24T16:51:30;13.00;73.40
2751;DHT22;1383;48.362;10.908;2023-03-24T16:53:58;13.00;73.30
2751;DHT22;1383;48.362;10.908;2023-03-24T16:56:25;13.00;73.30
2751;DHT22;1383;48.362;10.908;2023-03-24T16:58:52;12.90;72.50
2751;DHT22;1383;48.362;10.908;2023-03-24T17:04:11;12.80;74.00
2751;DHT22;1383;48.362;10.908;2023-03-24T17:06:41;12.80;73.40
2751;DHT22;1383;48.362;10.908;2023-03-24T17:09:09;12.70;72.20
2751;DHT22;1383;48.362;10.908;2023-03-24T17:11:56;12.80;71.10
2751;DHT22;1383;48.362;10.908;2023-03-24T17:14:24;12.70;70.30
2751;DHT22;1383;48.362;10.908;2023-03-24T17:16:50;12.50;70.10
2751;DHT22;1383;48.362;10.908;2023-03-24T17:19:20;12.50;71.30
2751;DHT22;1383;48.362;10.908;2023-03-24T17:22:00;12.50;70.70
2751;DHT22;1383;48.362;10.908;2023-03-24T17:24:28;12.40;71.20
2751;DHT22;1383;48.362;10.908;2023-03-24T17:26:58;12.40;71.30
2751;DHT22;1383;48.362;10.908;2023-03-24T17:29:25;12.40;70.30
2751;DHT22;1383;48.362;10.908;2023-03-24T17:31:52;12.40;69.50
2751;DHT22;1383;48.362;10.908;2023-03-24T17:34:19;12.40;68.70
2751;DHT22;1383;48.362;10.908;2023-03-24T17:36:48;12.50;68.50
2751;DHT22;1383;48.362;10.908;2023-03-24T17:39:17;12.50;68.50
2751;DHT22;1383;48.362;10.908;2023-03-24T17:41:45;12.40;67.60
2751;DHT22;1383;48.362;10.908;2023-03-24T17:44:12;12.40;67.50
2751;DHT22;1383;48.362;10.908;2023-03-24T17:46:38;12.40;67.60
2751;DHT22;1383;48.362;10.908;2023-03-24T17:49:06;12.40;68.50
2751;DHT22;1383;48.362;10.908;2023-03-24T17:51:32;12.30;67.70
2751;DHT22;1383;48.362;10.908;2023-03-24T17:53:59;12.30;67.60
2751;DHT22;1383;48.362;10.908;2023-03-24T17:56:26;12.20;66.80
2751;DHT22;1383;48.362;10.908;2023-03-24T17:58:53;12.10;67.30
2751;DHT22;1383;48.362;10.908;2023-03-24T18:01:21;12.00;68.10
2751;DHT22;1383;48.362;10.908;2023-03-24T18:03:49;12.00;68.60
2751;DHT22;1383;48.362;10.908;2023-03-24T18:06:16;12.00;68.20
2751;DHT22;1383;48.362;10.908;2023-03-24T18:08:43;12.00;67.40
2751;DHT22;1383;48.362;10.908;2023-03-24T18:11:12;12.00;67.70
2751;DHT22;1383;48.362;10.908;2023-03-24T18:13:41;11.90;67.00
2751;DHT22;1383;48.362;10.908;2023-03-24T18:16:08;11.90;67.70
2751;DHT22;1383;48.362;10.908;2023-03-24T18:18:47;11.80;67.70
2751;DHT22;1383;48.362;10.908;2023-03-24T18:21:14;11.80;67.70
2751;DHT22;1383;48.362;10.908;2023-03-24T18:23:41;11.80;67.80
2751;DHT22;1383;48.362;10.908;2023-03-24T18:26:08;11.80;67.30
2751;DHT22;1383;48.362;10.908;2023-03-24T18:28:36;11.70;66.60
2751;DHT22;1383;48.362;10.908;2023-03-24T18:31:21;11.70;66.80
2751;DHT22;1383;48.362;10.908;2023-03-24T18:33:52;11.70;66.90
2751;DHT22;1383;48.362;10.908;2023-03-24T18:36:21;11.70;66.50
2751;DHT22;1383;48.362;10.908;2023-03-24T18:39:01;11.70;66.80
2751;DHT22;1383;48.362;10.908;2023-03-24T18:41:28;11.70;66.10
2751;DHT22;1383;48.362;10.908;2023-03-24T18:43:57;11.70;65.90
2751;DHT22;1383;48.362;10.908;2023-03-24T18:46:25;11.70;65.60